Terminal Aerodrome Forecast
Issued by NWS

Home | Current Version | Previous Version | Text Only | Print | Product List | Glossary On
Versions: 1 2 3 4 5 6 7 8 9 10 11 12 13 14 15 16 17 18 19 20 21 22 23 24 25 26 27 28 29
000
FTUS43 KDLH 311100
TAFBRD
TAF
KBRD 311131Z 3112/0112 35012KT P6SM -SN OVC015
     FM311500 36011G17KT P6SM -SN BKN020
      TEMPO 3115/3117 4SM -SN BKN015
     FM312200 01009G17KT P6SM SCT025 BKN120
     FM010300 03007KT P6SM BKN080=

USA.gov is the U.S. government's official web portal to all federal, state and local government web resources and services.